Terminal Aerodrome Forecast
Issued by NWS

Home | Current Version | Previous Version | Text Only | Print | Product List | Glossary On
Versions: 1 2 3 4 5 6 7 8 9 10 11 12 13 14 15 16 17 18 19 20 21 22 23 24 25 26 27 28 29
000
FTAK31 PANC 211139
TAFADU
TAF
PADU 211139Z 2112/2212 32019G27KT P6SM -SHRASN BKN025 OVC035
     FM212300 31025G39KT 5SM -SHRASN OVC025=

USA.gov is the U.S. government's official web portal to all federal, state and local government web resources and services.